Time;durP1;ratioP1;P1;durP2;ratioP2;P2;SDS_P1;SDS_P2;PMS_P1;PMS_P2;Temp;Humidity;BMP_temperature;BMP_pressure;BME280_temperature;BME280_humidity;BME280_pressure;Samples;Min_cycle;Max_cycle;Signal;HPM_P1;HPM_P2
2022/03/31 00:01:14;;;;;;;1.23;0.93;;;;;;;;;;5092108;28;20324;-73
2022/03/31 00:03:42;;;;;;;0.93;0.77;;;;;;;;;;5092238;28;20229;-72
2022/03/31 00:06:09;;;;;;;1.07;0.73;;;;;;;;;;5092481;28;20198;-72
2022/03/31 00:08:37;;;;;;;4.23;3.63;;;;;;;;;;5092166;28;20190;-72
2022/03/31 00:11:06;;;;;;;2.73;2.00;;;;;;;;;;5092124;28;20196;-72
2022/03/31 00:13:34;;;;;;;1.93;1.27;;;;;;;;;;5092266;28;20221;-72
2022/03/31 00:16:01;;;;;;;1.70;1.47;;;;;;;;;;5092391;28;20626;-72
2022/03/31 00:18:31;;;;;;;3.83;3.33;;;;;;;;;;5092191;28;20190;-72
2022/03/31 00:20:58;;;;;;;3.53;3.00;;;;;;;;;;5092165;28;20311;-72
2022/03/31 00:23:26;;;;;;;1.37;0.90;;;;;;;;;;5092097;28;20191;-72
2022/03/31 00:25:54;;;;;;;1.53;1.10;;;;;;;;;;5092200;28;20194;-71
2022/03/31 00:28:26;;;;;;;2.70;1.90;;;;;;;;;;5092193;28;20201;-72
2022/03/31 00:30:53;;;;;;;2.73;1.80;;;;;;;;;;5092056;28;20213;-73
2022/03/31 00:33:21;;;;;;;0.70;0.70;;;;;;;;;;5091928;28;20281;-73
2022/03/31 00:35:52;;;;;;;2.17;1.97;;;;;;;;;;5092066;28;20559;-73
2022/03/31 00:38:20;;;;;;;2.90;2.07;;;;;;;;;;5092213;28;20194;-75
2022/03/31 00:40:47;;;;;;;0.90;0.90;;;;;;;;;;5091877;28;20289;-76
2022/03/31 00:43:15;;;;;;;1.97;1.00;;;;;;;;;;5091957;28;20201;-74
2022/03/31 00:45:51;;;;;;;1.10;1.10;;;;;;;;;;5092014;28;20213;-73
2022/03/31 00:48:19;;;;;;;1.30;1.20;;;;;;;;;;5092106;28;20598;-74
2022/03/31 00:50:47;;;;;;;1.17;0.63;;;;;;;;;;5091832;28;20197;-76
2022/03/31 00:53:14;;;;;;;0.83;0.83;;;;;;;;;;5091843;28;20194;-76
2022/03/31 00:55:43;;;;;;;1.53;0.97;;;;;;;;;;5091860;28;20221;-77
2022/03/31 00:58:11;;;;;;;2.03;1.63;;;;;;;;;;5091827;28;20285;-77
2022/03/31 01:00:39;;;;;;;1.30;0.93;;;;;;;;;;5091585;28;20241;-77
2022/03/31 01:03:08;;;;;;;0.63;0.63;;;;;;;;;;5091884;28;20194;-76
2022/03/31 01:05:38;;;;;;;0.23;0.23;;;;;;;;;;5092019;28;20186;-76
2022/03/31 01:08:06;;;;;;;1.53;1.23;;;;;;;;;;5092925;28;20190;-73
2022/03/31 01:10:33;;;;;;;2.70;2.50;;;;;;;;;;5095135;28;20252;-76
2022/03/31 01:13:05;;;;;;;2.13;1.93;;;;;;;;;;5095479;28;20194;-73
2022/03/31 01:15:32;;;;;;;1.40;1.23;;;;;;;;;;5095385;28;20313;-74
2022/03/31 01:17:59;;;;;;;0.70;0.60;;;;;;;;;;5095614;28;20547;-74
2022/03/31 01:20:28;;;;;;;1.43;1.33;;;;;;;;;;5095325;28;20194;-74
2022/03/31 01:22:58;;;;;;;1.10;1.00;;;;;;;;;;5095137;28;20594;-74
2022/03/31 01:25:28;;;;;;;0.37;0.37;;;;;;;;;;5095068;28;20201;-72
2022/03/31 01:27:55;;;;;;;0.80;0.80;;;;;;;;;;5094982;28;20252;-73
2022/03/31 01:30:24;;;;;;;0.00;0.00;;;;;;;;;;5094895;28;20197;-73
2022/03/31 01:32:52;;;;;;;0.47;0.47;;;;;;;;;;5094847;28;20593;-72
2022/03/31 01:35:20;;;;;;;0.57;0.20;;;;;;;;;;5094947;28;20226;-72
2022/03/31 01:37:48;;;;;;;0.73;0.73;;;;;;;;;;5094895;28;20198;-72
2022/03/31 01:40:15;;;;;;;0.97;0.93;;;;;;;;;;5095016;28;20191;-73
2022/03/31 01:42:46;;;;;;;0.50;0.50;;;;;;;;;;5094990;28;20226;-72
2022/03/31 01:45:15;;;;;;;3.73;1.00;;;;;;;;;;5094764;28;20195;-72
2022/03/31 01:47:43;;;;;;;0.77;0.77;;;;;;;;;;5094741;28;20209;-72
2022/03/31 01:50:11;;;;;;;1.47;1.10;;;;;;;;;;5094881;28;20281;-72
2022/03/31 01:52:39;;;;;;;0.20;0.20;;;;;;;;;;5094359;28;20282;-72
2022/03/31 01:55:07;;;;;;;0.40;0.40;;;;;;;;;;5094782;28;20229;-72
2022/03/31 01:57:36;;;;;;;0.57;0.57;;;;;;;;;;5094605;28;20217;-72
2022/03/31 02:00:05;;;;;;;0.97;0.87;;;;;;;;;;5094430;28;20618;-72
2022/03/31 02:02:33;;;;;;;0.00;0.00;;;;;;;;;;5094111;28;20209;-73
2022/03/31 02:05:00;;;;;;;0.50;0.50;;;;;;;;;;5094301;28;20832;-72
2022/03/31 02:07:28;;;;;;;0.40;0.40;;;;;;;;;;5094572;28;20285;-72
2022/03/31 02:09:55;;;;;;;0.37;0.37;;;;;;;;;;5094322;28;20646;-71
2022/03/31 02:12:23;;;;;;;0.00;0.00;;;;;;;;;;5094097;28;20198;-72
2022/03/31 02:14:50;;;;;;;1.00;0.20;;;;;;;;;;5094040;28;20317;-71
2022/03/31 02:17:19;;;;;;;0.00;0.00;;;;;;;;;;5094204;28;20194;-71
2022/03/31 02:19:47;;;;;;;0.00;0.00;;;;;;;;;;5094377;28;20263;-71
2022/03/31 02:22:14;;;;;;;0.33;0.30;;;;;;;;;;5094230;28;20198;-71
2022/03/31 02:24:42;;;;;;;0.63;0.63;;;;;;;;;;5093761;28;20194;-71
2022/03/31 02:27:09;;;;;;;0.00;0.00;;;;;;;;;;5094275;28;20236;-72
2022/03/31 02:29:38;;;;;;;0.20;0.20;;;;;;;;;;5094041;28;20186;-72
2022/03/31 02:32:07;;;;;;;0.93;0.40;;;;;;;;;;5093780;28;20201;-72
2022/03/31 02:34:36;;;;;;;1.00;0.60;;;;;;;;;;5093748;28;20218;-72
2022/03/31 02:37:04;;;;;;;0.40;0.40;;;;;;;;;;5094002;28;20199;-71
2022/03/31 02:39:32;;;;;;;0.23;0.23;;;;;;;;;;5093822;28;20194;-71
2022/03/31 02:42:01;;;;;;;1.23;0.40;;;;;;;;;;5093721;28;20190;-71
2022/03/31 02:44:29;;;;;;;0.20;0.13;;;;;;;;;;5093889;28;20209;-72
2022/03/31 02:46:56;;;;;;;0.03;0.00;;;;;;;;;;5093865;28;20200;-72
2022/03/31 02:49:24;;;;;;;0.70;0.63;;;;;;;;;;5093542;28;20190;-71
2022/03/31 02:51:53;;;;;;;0.73;0.30;;;;;;;;;;5093771;28;20190;-72
2022/03/31 02:57:05;;;;;;;0.00;0.00;;;;;;;;;;5093555;28;20260;-71
2022/03/31 02:59:33;;;;;;;0.27;0.27;;;;;;;;;;5093288;28;20663;-71
2022/03/31 03:02:01;;;;;;;0.20;0.20;;;;;;;;;;5093431;28;20229;-72
2022/03/31 03:04:28;;;;;;;0.00;0.00;;;;;;;;;;5093430;28;20197;-71
2022/03/31 03:06:58;;;;;;;0.00;0.00;;;;;;;;;;5093748;28;20293;-71
2022/03/31 03:09:26;;;;;;;0.17;0.07;;;;;;;;;;5093185;28;20201;-72
2022/03/31 03:11:53;;;;;;;0.00;0.00;;;;;;;;;;5093217;28;20233;-71
2022/03/31 03:14:22;;;;;;;0.40;0.40;;;;;;;;;;5093148;28;20281;-72
2022/03/31 03:16:50;;;;;;;0.30;0.30;;;;;;;;;;5092900;28;20194;-72
2022/03/31 03:19:18;;;;;;;1.00;1.00;;;;;;;;;;5093100;28;20190;-71
2022/03/31 03:21:46;;;;;;;0.83;0.77;;;;;;;;;;5092870;28;20191;-72
2022/03/31 03:24:16;;;;;;;1.57;1.03;;;;;;;;;;5092899;28;20190;-70
2022/03/31 03:26:43;;;;;;;0.60;0.60;;;;;;;;;;5092500;28;20646;-72
2022/03/31 03:29:11;;;;;;;0.67;0.67;;;;;;;;;;5093031;28;20186;-72
2022/03/31 03:31:39;;;;;;;0.00;0.00;;;;;;;;;;5092655;28;20269;-72
2022/03/31 03:34:07;;;;;;;0.10;0.10;;;;;;;;;;5092820;28;20272;-71
2022/03/31 03:36:35;;;;;;;1.17;0.97;;;;;;;;;;5092436;28;20310;-72
2022/03/31 03:39:04;;;;;;;1.37;1.27;;;;;;;;;;5092946;28;20190;-71
2022/03/31 03:41:33;;;;;;;1.43;0.80;;;;;;;;;;5092684;28;20239;-71
2022/03/31 03:44:00;;;;;;;2.23;1.13;;;;;;;;;;5092753;28;20293;-71
2022/03/31 03:46:28;;;;;;;0.40;0.40;;;;;;;;;;5092659;28;20196;-72
2022/03/31 03:48:56;;;;;;;0.70;0.53;;;;;;;;;;5092437;28;20201;-71
2022/03/31 03:51:24;;;;;;;0.40;0.40;;;;;;;;;;5092772;28;20190;-71
2022/03/31 03:53:52;;;;;;;0.33;0.33;;;;;;;;;;5092638;28;20198;-71
2022/03/31 03:56:19;;;;;;;0.60;0.47;;;;;;;;;;5092532;28;20222;-71
2022/03/31 03:58:48;;;;;;;1.13;1.10;;;;;;;;;;5092190;28;20673;-71
2022/03/31 04:01:16;;;;;;;1.27;1.17;;;;;;;;;;5092340;28;20226;-71
2022/03/31 04:03:44;;;;;;;1.17;0.90;;;;;;;;;;5092305;28;20198;-71
2022/03/31 04:06:11;;;;;;;1.30;0.97;;;;;;;;;;5092592;28;20198;-71
2022/03/31 04:08:40;;;;;;;0.70;0.63;;;;;;;;;;5092382;28;20201;-71
2022/03/31 04:11:07;;;;;;;0.20;0.20;;;;;;;;;;5092366;28;20614;-71
2022/03/31 04:13:35;;;;;;;1.17;1.00;;;;;;;;;;5092337;28;20642;-71
2022/03/31 04:16:03;;;;;;;0.10;0.10;;;;;;;;;;5092070;28;20709;-71
2022/03/31 04:18:31;;;;;;;0.30;0.30;;;;;;;;;;5092499;28;20197;-71
2022/03/31 04:21:01;;;;;;;0.20;0.20;;;;;;;;;;5092459;28;20198;-71
2022/03/31 04:23:29;;;;;;;0.80;0.43;;;;;;;;;;5092448;28;20190;-71
2022/03/31 04:25:57;;;;;;;0.27;0.20;;;;;;;;;;5092299;28;20240;-71
2022/03/31 04:28:24;;;;;;;1.50;1.10;;;;;;;;;;5092041;28;20614;-72
2022/03/31 04:30:52;;;;;;;0.40;0.30;;;;;;;;;;5091808;28;20200;-72
2022/03/31 04:33:21;;;;;;;0.27;0.23;;;;;;;;;;5092157;28;20654;-70
2022/03/31 04:35:48;;;;;;;0.30;0.23;;;;;;;;;;5092112;28;20570;-71
2022/03/31 04:38:16;;;;;;;0.67;0.60;;;;;;;;;;5092029;28;20191;-70
2022/03/31 04:40:43;;;;;;;0.00;0.00;;;;;;;;;;5091885;28;20191;-71
2022/03/31 04:43:10;;;;;;;0.10;0.10;;;;;;;;;;5093275;28;20194;-71
2022/03/31 04:45:38;;;;;;;0.00;0.00;;;;;;;;;;5095893;28;20190;-70
2022/03/31 04:48:07;;;;;;;0.33;0.33;;;;;;;;;;5095859;28;20200;-71
2022/03/31 04:50:36;;;;;;;0.87;0.30;;;;;;;;;;5095722;28;20218;-71
2022/03/31 04:53:03;;;;;;;0.00;0.00;;;;;;;;;;5096002;28;20530;-71
2022/03/31 04:55:31;;;;;;;0.10;0.03;;;;;;;;;;5095553;28;20221;-71
2022/03/31 04:57:59;;;;;;;0.30;0.30;;;;;;;;;;5095958;28;20194;-71
2022/03/31 05:00:26;;;;;;;0.40;0.40;;;;;;;;;;5095412;28;20687;-71
2022/03/31 05:02:54;;;;;;;0.60;0.57;;;;;;;;;;5095219;28;20651;-72
2022/03/31 05:05:22;;;;;;;0.40;0.40;;;;;;;;;;5095887;28;20577;-71
2022/03/31 05:07:51;;;;;;;2.00;0.30;;;;;;;;;;5095574;28;20200;-71
2022/03/31 05:10:20;;;;;;;0.10;0.10;;;;;;;;;;5095387;28;20217;-71
2022/03/31 05:12:47;;;;;;;0.13;0.13;;;;;;;;;;5095251;28;20189;-71
2022/03/31 05:15:15;;;;;;;0.30;0.30;;;;;;;;;;5095248;28;20228;-72
2022/03/31 05:17:42;;;;;;;0.30;0.30;;;;;;;;;;5095287;28;20546;-71
2022/03/31 05:20:14;;;;;;;0.17;0.13;;;;;;;;;;5095353;28;20675;-72
2022/03/31 05:22:42;;;;;;;0.20;0.20;;;;;;;;;;5095537;28;20221;-71
2022/03/31 05:25:12;;;;;;;0.23;0.23;;;;;;;;;;5095104;28;20204;-71
2022/03/31 05:27:43;;;;;;;3.63;0.93;;;;;;;;;;5095356;28;20187;-70
2022/03/31 05:30:11;;;;;;;0.30;0.30;;;;;;;;;;5095073;28;20190;-71
2022/03/31 05:32:39;;;;;;;1.03;0.93;;;;;;;;;;5094881;28;20197;-71
2022/03/31 05:35:07;;;;;;;0.07;0.07;;;;;;;;;;5094840;28;20551;-71
2022/03/31 05:37:35;;;;;;;0.53;0.27;;;;;;;;;;5095205;28;20586;-71
2022/03/31 05:40:04;;;;;;;0.23;0.10;;;;;;;;;;5094826;28;20285;-71
2022/03/31 05:42:33;;;;;;;0.10;0.10;;;;;;;;;;5094609;28;20277;-72
2022/03/31 05:45:00;;;;;;;0.30;0.30;;;;;;;;;;5094793;28;20554;-72
2022/03/31 05:47:28;;;;;;;0.30;0.30;;;;;;;;;;5094793;28;20196;-70
2022/03/31 05:49:55;;;;;;;0.33;0.33;;;;;;;;;;5094687;28;20293;-71
2022/03/31 05:52:23;;;;;;;0.20;0.20;;;;;;;;;;5094948;28;20195;-70
2022/03/31 05:54:50;;;;;;;1.07;0.73;;;;;;;;;;5094188;28;20193;-71
2022/03/31 05:57:18;;;;;;;0.00;0.00;;;;;;;;;;5094703;28;20226;-70
2022/03/31 05:59:47;;;;;;;0.30;0.30;;;;;;;;;;5094343;28;20198;-71
2022/03/31 06:02:15;;;;;;;0.10;0.10;;;;;;;;;;5094580;28;20204;-71
2022/03/31 06:04:42;;;;;;;0.17;0.10;;;;;;;;;;5094166;28;20205;-71
2022/03/31 06:07:11;;;;;;;1.77;1.13;;;;;;;;;;5094442;28;20670;-71
2022/03/31 06:09:38;;;;;;;0.47;0.47;;;;;;;;;;5094341;28;20292;-71
2022/03/31 06:12:06;;;;;;;0.10;0.10;;;;;;;;;;5094444;28;20191;-71
2022/03/31 06:14:33;;;;;;;4.00;2.33;;;;;;;;;;5094137;28;20196;-71
2022/03/31 06:17:02;;;;;;;0.77;0.77;;;;;;;;;;5094158;28;20233;-71
2022/03/31 06:19:30;;;;;;;0.00;0.00;;;;;;;;;;5094386;28;20190;-71
2022/03/31 06:21:58;;;;;;;0.00;0.00;;;;;;;;;;5094599;28;20584;-70
2022/03/31 06:24:26;;;;;;;0.77;0.57;;;;;;;;;;5094138;28;20225;-71
2022/03/31 06:26:55;;;;;;;0.00;0.00;;;;;;;;;;5093874;28;20186;-71
2022/03/31 06:29:23;;;;;;;0.43;0.43;;;;;;;;;;5093967;28;20279;-70
2022/03/31 06:31:51;;;;;;;1.73;0.67;;;;;;;;;;5094129;28;20551;-70
2022/03/31 06:34:19;;;;;;;0.80;0.80;;;;;;;;;;5093906;28;20194;-72
2022/03/31 06:36:47;;;;;;;0.30;0.20;;;;;;;;;;5093568;28;20321;-70
2022/03/31 06:39:14;;;;;;;0.40;0.33;;;;;;;;;;5093705;28;20186;-70
2022/03/31 06:41:43;;;;;;;0.20;0.10;;;;;;;;;;5093743;28;20566;-71
2022/03/31 06:44:13;;;;;;;0.03;0.03;;;;;;;;;;5093638;28;20198;-68
2022/03/31 06:46:41;;;;;;;1.23;0.60;;;;;;;;;;5093924;28;20198;-70
2022/03/31 06:49:08;;;;;;;0.00;0.00;;;;;;;;;;5094144;28;20543;-68
2022/03/31 06:51:37;;;;;;;1.53;1.20;;;;;;;;;;5093535;28;20220;-68
2022/03/31 06:54:05;;;;;;;0.30;0.30;;;;;;;;;;5093467;28;20539;-68
2022/03/31 06:56:33;;;;;;;1.63;0.90;;;;;;;;;;5093167;28;20646;-69
2022/03/31 06:59:02;;;;;;;0.33;0.33;;;;;;;;;;5093227;28;20205;-69
2022/03/31 07:01:29;;;;;;;0.00;0.00;;;;;;;;;;5093044;28;20305;-68
2022/03/31 07:03:56;;;;;;;0.10;0.03;;;;;;;;;;5093421;28;20293;-68
2022/03/31 07:06:24;;;;;;;0.00;0.00;;;;;;;;;;5092560;28;20210;-69
2022/03/31 07:08:53;;;;;;;0.90;0.90;;;;;;;;;;5092868;28;20196;-68
2022/03/31 07:11:21;;;;;;;0.00;0.00;;;;;;;;;;5093375;28;20222;-68
2022/03/31 07:13:49;;;;;;;0.00;0.00;;;;;;;;;;5088041;28;20202;-68
2022/03/31 07:16:17;;;;;;;0.00;0.00;;;;;;;;;;5091617;28;20222;-69
2022/03/31 07:18:45;;;;;;;0.03;0.03;;;;;;;;;;5092654;28;20194;-68
2022/03/31 07:21:12;;;;;;;0.20;0.20;;;;;;;;;;5092905;28;20228;-68
2022/03/31 07:23:40;;;;;;;0.00;0.00;;;;;;;;;;5092841;28;20194;-68
2022/03/31 07:26:10;;;;;;;0.10;0.07;;;;;;;;;;5092899;28;20335;-68
2022/03/31 07:28:37;;;;;;;0.30;0.30;;;;;;;;;;5092998;28;20233;-68
2022/03/31 07:31:05;;;;;;;0.40;0.40;;;;;;;;;;5092909;28;20198;-68
2022/03/31 07:33:34;;;;;;;0.30;0.30;;;;;;;;;;5092786;28;20194;-67
2022/03/31 07:36:01;;;;;;;0.80;0.47;;;;;;;;;;5092466;28;20222;-70
2022/03/31 07:38:29;;;;;;;0.40;0.40;;;;;;;;;;5092844;28;20191;-69
2022/03/31 07:40:56;;;;;;;0.10;0.10;;;;;;;;;;5092539;28;20234;-69
2022/03/31 07:43:27;;;;;;;0.47;0.37;;;;;;;;;;5092768;28;20201;-68
2022/03/31 07:45:54;;;;;;;0.57;0.57;;;;;;;;;;5092737;28;20194;-70
2022/03/31 07:48:22;;;;;;;0.20;0.07;;;;;;;;;;5092514;28;20651;-69
2022/03/31 07:50:49;;;;;;;0.10;0.10;;;;;;;;;;5092315;28;20225;-68
2022/03/31 07:53:17;;;;;;;0.07;0.07;;;;;;;;;;5092472;28;20230;-68
2022/03/31 07:55:45;;;;;;;0.30;0.20;;;;;;;;;;5092547;28;20719;-68
2022/03/31 07:58:13;;;;;;;0.37;0.37;;;;;;;;;;5092524;28;20196;-67
2022/03/31 08:00:42;;;;;;;0.27;0.27;;;;;;;;;;5091881;28;20218;-67
2022/03/31 08:03:10;;;;;;;0.90;0.90;;;;;;;;;;5092338;28;20186;-68
2022/03/31 08:05:39;;;;;;;0.00;0.00;;;;;;;;;;5092252;28;20190;-67
2022/03/31 08:08:07;;;;;;;0.57;0.47;;;;;;;;;;5092363;28;20604;-73
2022/03/31 08:10:35;;;;;;;0.00;0.00;;;;;;;;;;5092157;28;20658;-67
2022/03/31 08:13:02;;;;;;;0.00;0.00;;;;;;;;;;5092319;28;20235;-68
2022/03/31 08:15:30;;;;;;;0.47;0.23;;;;;;;;;;5092235;28;20216;-68
2022/03/31 08:17:59;;;;;;;0.07;0.07;;;;;;;;;;5095227;28;20569;-68
2022/03/31 08:20:27;;;;;;;0.30;0.30;;;;;;;;;;5096680;28;20201;-67
2022/03/31 08:22:54;;;;;;;0.10;0.10;;;;;;;;;;5096153;28;20190;-67
2022/03/31 08:25:22;;;;;;;1.60;0.97;;;;;;;;;;5096399;28;20200;-67
2022/03/31 08:27:49;;;;;;;1.00;0.73;;;;;;;;;;5096252;28;20186;-68
2022/03/31 08:30:19;;;;;;;0.00;0.00;;;;;;;;;;5096102;28;20384;-68
2022/03/31 08:32:49;;;;;;;0.00;0.00;;;;;;;;;;5095868;28;20228;-68
2022/03/31 08:35:20;;;;;;;0.10;0.10;;;;;;;;;;5096115;28;20190;-68
2022/03/31 08:37:48;;;;;;;0.23;0.20;;;;;;;;;;5096148;28;20234;-68
2022/03/31 08:40:16;;;;;;;0.00;0.00;;;;;;;;;;5096163;28;20186;-67
2022/03/31 08:42:44;;;;;;;0.00;0.00;;;;;;;;;;5095632;28;20223;-67
2022/03/31 08:45:12;;;;;;;0.00;0.00;;;;;;;;;;5096143;28;20281;-68
2022/03/31 08:47:41;;;;;;;0.00;0.00;;;;;;;;;;5096093;28;20190;-68
2022/03/31 08:50:10;;;;;;;0.00;0.00;;;;;;;;;;5096062;28;20191;-68
2022/03/31 08:52:39;;;;;;;0.03;0.03;;;;;;;;;;5095717;28;20198;-69
2022/03/31 08:55:09;;;;;;;3.23;1.80;;;;;;;;;;5095838;28;20230;-70
2022/03/31 08:57:44;;;;;;;0.20;0.20;;;;;;;;;;5095681;28;20268;-68
2022/03/31 09:00:13;;;;;;;0.73;0.43;;;;;;;;;;5095461;28;20652;-68
2022/03/31 09:02:41;;;;;;;2.53;1.63;;;;;;;;;;5095496;28;20281;-68
2022/03/31 09:05:10;;;;;;;0.03;0.03;;;;;;;;;;5095734;28;20281;-67
2022/03/31 09:07:38;;;;;;;0.60;0.60;;;;;;;;;;5095843;28;20193;-67
2022/03/31 09:10:07;;;;;;;0.20;0.20;;;;;;;;;;5095554;28;20194;-67
2022/03/31 09:12:38;;;;;;;1.70;1.50;;;;;;;;;;5095546;28;20196;-67
2022/03/31 09:15:12;;;;;;;0.20;0.20;;;;;;;;;;5095650;28;20255;-67
2022/03/31 09:17:41;;;;;;;1.20;1.03;;;;;;;;;;5095355;28;20306;-67
2022/03/31 09:20:09;;;;;;;0.10;0.10;;;;;;;;;;5095277;28;20256;-68
2022/03/31 09:22:48;;;;;;;0.00;0.00;;;;;;;;;;5095034;28;20190;-69
2022/03/31 09:25:23;;;;;;;0.93;0.53;;;;;;;;;;5095154;28;20524;-68
2022/03/31 09:27:51;;;;;;;0.00;0.00;;;;;;;;;;5095259;28;20190;-68
2022/03/31 09:30:19;;;;;;;0.33;0.33;;;;;;;;;;5094464;28;20198;-68
2022/03/31 09:32:50;;;;;;;0.00;0.00;;;;;;;;;;5094833;28;20198;-68
2022/03/31 09:35:21;;;;;;;0.17;0.17;;;;;;;;;;5095205;28;20194;-68
2022/03/31 09:37:49;;;;;;;0.77;0.50;;;;;;;;;;5095026;28;20597;-68
2022/03/31 09:40:19;;;;;;;0.30;0.30;;;;;;;;;;5095099;28;20285;-68
2022/03/31 09:42:57;;;;;;;0.27;0.27;;;;;;;;;;5094781;28;20609;-68
2022/03/31 09:45:25;;;;;;;0.30;0.30;;;;;;;;;;5095043;28;20191;-67
2022/03/31 09:47:53;;;;;;;1.97;0.97;;;;;;;;;;5095009;28;20200;-67
2022/03/31 09:50:21;;;;;;;0.30;0.30;;;;;;;;;;5094755;28;20195;-68
2022/03/31 09:52:50;;;;;;;1.17;0.63;;;;;;;;;;5094538;28;20288;-67
2022/03/31 09:55:19;;;;;;;2.07;0.93;;;;;;;;;;5094567;28;20187;-67
2022/03/31 09:57:49;;;;;;;1.23;1.13;;;;;;;;;;5094465;28;20218;-68
2022/03/31 10:00:20;;;;;;;0.60;0.30;;;;;;;;;;5094244;28;20260;-67
2022/03/31 10:02:48;;;;;;;0.60;0.60;;;;;;;;;;5094622;28;20198;-67
2022/03/31 10:05:16;;;;;;;0.37;0.37;;;;;;;;;;5094423;28;20218;-67
2022/03/31 10:07:46;;;;;;;0.20;0.20;;;;;;;;;;5094742;28;20202;-69
2022/03/31 10:10:14;;;;;;;0.00;0.00;;;;;;;;;;5094264;28;20243;-68
2022/03/31 10:12:45;;;;;;;0.00;0.00;;;;;;;;;;5094374;28;20267;-68
2022/03/31 10:15:16;;;;;;;0.00;0.00;;;;;;;;;;5094221;28;20258;-67
2022/03/31 10:17:44;;;;;;;3.13;0.57;;;;;;;;;;5094106;28;20704;-68
2022/03/31 10:20:13;;;;;;;0.73;0.20;;;;;;;;;;5094209;28;20195;-67
2022/03/31 10:25:42;;;;;;;0.00;0.00;;;;;;;;;;5094051;28;20201;-67
2022/03/31 10:28:12;;;;;;;0.07;0.07;;;;;;;;;;5093934;28;20194;-68
2022/03/31 10:30:40;;;;;;;0.00;0.00;;;;;;;;;;5093753;28;20190;-68
2022/03/31 10:33:09;;;;;;;0.10;0.10;;;;;;;;;;5093870;28;20689;-68
2022/03/31 10:35:38;;;;;;;0.00;0.00;;;;;;;;;;5093788;28;20194;-68
2022/03/31 10:38:17;;;;;;;0.00;0.00;;;;;;;;;;5093732;28;20222;-66
2022/03/31 10:40:45;;;;;;;0.00;0.00;;;;;;;;;;5092631;28;20673;-66
2022/03/31 10:43:24;;;;;;;0.00;0.00;;;;;;;;;;5093791;28;20189;-67
2022/03/31 10:45:54;;;;;;;0.00;0.00;;;;;;;;;;5093743;28;20263;-67
2022/03/31 10:48:23;;;;;;;0.40;0.40;;;;;;;;;;5093855;28;20194;-66
2022/03/31 10:51:02;;;;;;;0.00;0.00;;;;;;;;;;5093416;28;20195;-67
2022/03/31 10:53:29;;;;;;;0.03;0.03;;;;;;;;;;5093523;28;20217;-69
2022/03/31 10:55:57;;;;;;;0.00;0.00;;;;;;;;;;5093398;28;20195;-67
2022/03/31 10:58:29;;;;;;;0.03;0.03;;;;;;;;;;5093279;28;20230;-67
2022/03/31 11:00:57;;;;;;;0.00;0.00;;;;;;;;;;5093400;28;20226;-67
2022/03/31 11:03:26;;;;;;;0.00;0.00;;;;;;;;;;5093462;28;20197;-67
2022/03/31 11:05:59;;;;;;;0.23;0.23;;;;;;;;;;5093309;28;20651;-67
2022/03/31 11:08:26;;;;;;;0.73;0.37;;;;;;;;;;5093157;28;20606;-68
2022/03/31 11:10:55;;;;;;;0.23;0.10;;;;;;;;;;5092920;28;20198;-67
2022/03/31 11:13:33;;;;;;;0.83;0.70;;;;;;;;;;5093117;28;20665;-69
2022/03/31 11:16:01;;;;;;;0.00;0.00;;;;;;;;;;5093162;28;20190;-68
2022/03/31 11:18:29;;;;;;;0.00;0.00;;;;;;;;;;5092895;28;20222;-69
2022/03/31 11:20:58;;;;;;;0.20;0.20;;;;;;;;;;5093000;28;20531;-69
2022/03/31 11:23:25;;;;;;;0.03;0.03;;;;;;;;;;5092894;28;20194;-68
2022/03/31 11:25:53;;;;;;;0.17;0.17;;;;;;;;;;5093339;28;20190;-69
2022/03/31 11:28:21;;;;;;;0.20;0.20;;;;;;;;;;5092835;28;20193;-68
2022/03/31 11:30:51;;;;;;;0.00;0.00;;;;;;;;;;5092609;28;20195;-68
2022/03/31 11:33:18;;;;;;;0.13;0.13;;;;;;;;;;5092885;28;20207;-68
2022/03/31 11:35:46;;;;;;;0.00;0.00;;;;;;;;;;5092791;28;20232;-68
2022/03/31 11:38:17;;;;;;;0.10;0.10;;;;;;;;;;5092817;28;20211;-68
2022/03/31 11:40:46;;;;;;;0.23;0.20;;;;;;;;;;5092485;28;20191;-69
2022/03/31 11:43:14;;;;;;;0.00;0.00;;;;;;;;;;5092665;28;20197;-68
2022/03/31 11:45:44;;;;;;;0.00;0.00;;;;;;;;;;5092579;28;20566;-69
2022/03/31 11:48:14;;;;;;;0.00;0.00;;;;;;;;;;5092381;28;20594;-68
2022/03/31 11:50:50;;;;;;;0.30;0.30;;;;;;;;;;5092206;28;20194;-68
2022/03/31 11:53:18;;;;;;;0.00;0.00;;;;;;;;;;5092380;28;20208;-69
2022/03/31 11:55:56;;;;;;;2.20;0.47;;;;;;;;;;5092536;28;20262;-69
2022/03/31 11:58:23;;;;;;;0.00;0.00;;;;;;;;;;5092439;28;20218;-69
2022/03/31 12:00:52;;;;;;;0.00;0.00;;;;;;;;;;5091786;28;20236;-69
2022/03/31 12:03:24;;;;;;;0.00;0.00;;;;;;;;;;5092337;28;20221;-70
2022/03/31 12:05:58;;;;;;;0.00;0.00;;;;;;;;;;5092658;28;20222;-68
2022/03/31 12:08:26;;;;;;;0.00;0.00;;;;;;;;;;5092380;28;20243;-68
2022/03/31 12:10:55;;;;;;;0.00;0.00;;;;;;;;;;5092058;28;20247;-68
2022/03/31 12:13:24;;;;;;;0.20;0.00;;;;;;;;;;5092832;28;20685;-68
2022/03/31 12:16:03;;;;;;;0.00;0.00;;;;;;;;;;5092409;28;20197;-68
2022/03/31 12:18:34;;;;;;;0.53;0.53;;;;;;;;;;5092142;28;20229;-70
2022/03/31 12:21:03;;;;;;;0.00;0.00;;;;;;;;;;5092216;28;20190;-67
2022/03/31 12:23:30;;;;;;;0.30;0.30;;;;;;;;;;5092208;28;20198;-66
2022/03/31 12:25:58;;;;;;;0.10;0.10;;;;;;;;;;5092079;28;20297;-69
2022/03/31 12:28:26;;;;;;;0.13;0.13;;;;;;;;;;5092098;28;20198;-70
2022/03/31 12:30:54;;;;;;;0.00;0.00;;;;;;;;;;5091974;28;20194;-68
2022/03/31 12:33:26;;;;;;;0.03;0.03;;;;;;;;;;5091951;28;20559;-69
2022/03/31 12:36:05;;;;;;;0.00;0.00;;;;;;;;;;5092046;28;20197;-70
2022/03/31 12:38:36;;;;;;;0.63;0.50;;;;;;;;;;5091994;28;20332;-69
2022/03/31 12:41:08;;;;;;;0.13;0.13;;;;;;;;;;5092140;28;20191;-69
2022/03/31 12:43:36;;;;;;;0.30;0.30;;;;;;;;;;5091992;28;20734;-69
2022/03/31 12:46:13;;;;;;;0.27;0.27;;;;;;;;;;5092104;28;20236;-69
2022/03/31 12:48:51;;;;;;;0.83;0.83;;;;;;;;;;5091568;28;20200;-70
2022/03/31 12:51:20;;;;;;;3.07;0.93;;;;;;;;;;5092056;28;20209;-70
2022/03/31 12:53:48;;;;;;;0.10;0.10;;;;;;;;;;5092005;28;20288;-69
2022/03/31 12:56:23;;;;;;;0.20;0.20;;;;;;;;;;5091871;28;20291;-70
2022/03/31 12:58:51;;;;;;;0.23;0.23;;;;;;;;;;5091456;28;20224;-71
2022/03/31 13:01:20;;;;;;;0.30;0.30;;;;;;;;;;5091357;28;20764;-70
2022/03/31 13:03:48;;;;;;;0.23;0.23;;;;;;;;;;5092565;28;20241;-70
2022/03/31 13:06:16;;;;;;;0.10;0.10;;;;;;;;;;5095427;28;20190;-70
2022/03/31 13:08:45;;;;;;;0.03;0.03;;;;;;;;;;5095184;28;20202;-76
2022/03/31 13:11:13;;;;;;;0.00;0.00;;;;;;;;;;5095557;28;20225;-70
2022/03/31 13:13:42;;;;;;;0.40;0.40;;;;;;;;;;5095372;28;20208;-70
2022/03/31 13:16:10;;;;;;;0.10;0.10;;;;;;;;;;5095349;28;20226;-70
2022/03/31 13:18:40;;;;;;;0.40;0.40;;;;;;;;;;5095064;28;20229;-72
2022/03/31 13:21:10;;;;;;;0.40;0.30;;;;;;;;;;5095649;28;20525;-70
2022/03/31 13:23:38;;;;;;;0.23;0.17;;;;;;;;;;5095270;28;20191;-70
2022/03/31 13:26:10;;;;;;;0.00;0.00;;;;;;;;;;5095178;28;20638;-69
2022/03/31 13:28:39;;;;;;;0.10;0.10;;;;;;;;;;5095080;28;20647;-69
2022/03/31 13:31:08;;;;;;;0.10;0.10;;;;;;;;;;5095134;28;20198;-69
2022/03/31 13:33:37;;;;;;;0.00;0.00;;;;;;;;;;5095253;28;20194;-69
2022/03/31 13:36:04;;;;;;;0.00;0.00;;;;;;;;;;5094910;28;20199;-69
2022/03/31 13:38:34;;;;;;;0.07;0.07;;;;;;;;;;5094576;28;20218;-73
2022/03/31 13:41:02;;;;;;;0.00;0.00;;;;;;;;;;5094815;28;20276;-69
2022/03/31 13:43:31;;;;;;;0.73;0.30;;;;;;;;;;5095041;28;20289;-71
2022/03/31 13:46:01;;;;;;;0.20;0.20;;;;;;;;;;5105521;28;20182;-68
2022/03/31 13:48:29;;;;;;;0.00;0.00;;;;;;;;;;5105358;28;20678;-68
2022/03/31 13:50:57;;;;;;;0.00;0.00;;;;;;;;;;5094816;28;20194;-68
2022/03/31 13:56:10;;;;;;;0.40;0.40;;;;;;;;;;5094550;28;20192;-71
2022/03/31 14:01:25;;;;;;;0.67;0.60;;;;;;;;;;5094577;28;20698;-70
2022/03/31 14:06:35;;;;;;;0.27;0.27;;;;;;;;;;5106011;28;20194;-70
2022/03/31 14:09:03;;;;;;;0.20;0.20;;;;;;;;;;5096378;28;20216;-71
2022/03/31 14:11:34;;;;;;;0.83;0.80;;;;;;;;;;5094363;28;20195;-70
2022/03/31 14:14:04;;;;;;;0.77;0.63;;;;;;;;;;5094257;28;20625;-70
2022/03/31 14:16:34;;;;;;;0.40;0.10;;;;;;;;;;5093721;28;20190;-72
2022/03/31 14:19:04;;;;;;;1.27;1.27;;;;;;;;;;5094224;28;20312;-70
2022/03/31 14:21:31;;;;;;;1.57;1.03;;;;;;;;;;5094472;28;20590;-70
2022/03/31 14:23:59;;;;;;;0.30;0.30;;;;;;;;;;5093960;28;20194;-70
2022/03/31 14:26:27;;;;;;;1.17;1.07;;;;;;;;;;5093908;28;20197;-70
2022/03/31 14:28:56;;;;;;;2.20;2.03;;;;;;;;;;5093731;28;20289;-70
2022/03/31 14:31:26;;;;;;;1.83;1.73;;;;;;;;;;5094131;28;20194;-70
2022/03/31 14:33:53;;;;;;;1.97;1.13;;;;;;;;;;5093883;28;20704;-70
2022/03/31 14:36:21;;;;;;;1.70;1.60;;;;;;;;;;5093897;28;20193;-69
2022/03/31 14:38:50;;;;;;;1.30;1.10;;;;;;;;;;5093310;28;20722;-70
2022/03/31 14:41:18;;;;;;;1.87;1.30;;;;;;;;;;5093576;28;20244;-69
2022/03/31 14:43:46;;;;;;;1.93;0.87;;;;;;;;;;5093508;28;20234;-69
2022/03/31 14:46:15;;;;;;;0.67;0.67;;;;;;;;;;5093647;28;20677;-69
2022/03/31 14:48:44;;;;;;;1.10;0.90;;;;;;;;;;5093271;28;20659;-70
2022/03/31 14:51:13;;;;;;;0.73;0.63;;;;;;;;;;5093617;28;20190;-70
2022/03/31 14:53:41;;;;;;;1.67;0.90;;;;;;;;;;5093345;28;20252;-70
2022/03/31 14:56:09;;;;;;;1.67;1.57;;;;;;;;;;5093720;28;20283;-71
2022/03/31 14:58:36;;;;;;;1.43;1.33;;;;;;;;;;5093116;28;20217;-73
2022/03/31 15:01:04;;;;;;;1.40;1.20;;;;;;;;;;5092912;28;20721;-77
2022/03/31 15:03:32;;;;;;;0.23;0.23;;;;;;;;;;5093280;28;20186;-76
2022/03/31 15:06:01;;;;;;;1.03;0.90;;;;;;;;;;5092987;28;20190;-75